Hlavní strana
METAR-TAF:

METAR-TAF

Letiště :

Tanger, Maroko

zeměpisná šířka: 35-44N, zeměpisná délka: 005-54W, výška: 19 m

Aktuální stav počasí

Zpráva byla vytvořena před 20 minutami, v 04:30 UTC
Východní vítr 24 kt
Teplota 20°C
Vlhkost vzduchu 73%
Tlak 1017 hPa
Viditelnost 10 km a více
Žádná oblačnost pod 1500 m, nevyskytují se cumulonimby.

METAR: GMTT 260430Z AUTO 08024KT CAVOK 20/15 Q1017 NOSIG

Čas: 05:50 (04:50 UTC)

Předpověď počasí

Zpráva byla vytvořena před 5 hodinami a 50 minutami, v 23:00 UTC
Předpověď platná od 26 v 00 UTC do 27 v 06 UTC
Východní vítr 26 kt s nárazy do 38 kt
Viditelnost 10 km a více
Žádná oblačnost pod 1500 m, nevyskytují se cumulonimby.

TAF: GMTT 252300Z 2600/2706 08026G38KT CAVOK

Stav a předpovědi počasí z více než 4 000 letišť (zprávy METAR a TAF).

Červené a žluté tečky na mapě představují dostupné meteorologické stanice.

Když kurzor umístíte na tečku, zobrazí se název stanice.

Pak kliknutím zobrazíte stav a předpověď počasí.

Chcete-li změnit mapu, kliknutím na zelené tlačítko se znaménkem +mapu přiblížíte, kliknutím na zelené tlačítko se znaménkem – mapu oddálíte a kliknutím na zelené šipky přejdete na sousední mapy.


METAR-TAF: